createdAt,value
2022-09-28T00:01:07.848Z,100.00
2022-09-28T00:03:36.222Z,100.00
2022-09-28T00:06:06.211Z,100.00
2022-09-28T00:08:35.101Z,100.00
2022-09-28T00:11:04.027Z,100.00
2022-09-28T00:13:34.207Z,100.00
2022-09-28T00:16:04.000Z,100.00
2022-09-28T00:18:32.393Z,100.00
2022-09-28T00:21:05.853Z,100.00
2022-09-28T00:23:34.432Z,100.00
2022-09-28T00:26:06.415Z,100.00
2022-09-28T00:28:35.717Z,100.00
2022-09-28T00:31:03.687Z,100.00
2022-09-28T00:33:31.623Z,100.00
2022-09-28T00:35:59.693Z,100.00
2022-09-28T00:38:29.086Z,100.00
2022-09-28T00:40:57.406Z,100.00
2022-09-28T00:43:25.837Z,100.00
2022-09-28T00:46:00.240Z,100.00
2022-09-28T00:48:32.560Z,100.00
2022-09-28T00:51:06.189Z,100.00
2022-09-28T00:53:38.776Z,100.00
2022-09-28T00:56:11.274Z,100.00
2022-09-28T00:58:43.063Z,100.00
2022-09-28T01:01:13.124Z,100.00
2022-09-28T01:03:45.411Z,100.00
2022-09-28T01:06:18.921Z,100.00
2022-09-28T01:08:48.232Z,100.00
2022-09-28T01:11:16.162Z,100.00
2022-09-28T01:13:44.585Z,100.00
2022-09-28T01:16:21.293Z,100.00
2022-09-28T01:18:58.934Z,100.00
2022-09-28T01:21:27.713Z,100.00
2022-09-28T01:24:11.037Z,100.00
2022-09-28T01:27:06.482Z,100.00
2022-09-28T01:29:46.390Z,100.00
2022-09-28T01:32:23.752Z,100.00
2022-09-28T01:34:59.036Z,100.00
2022-09-28T01:37:33.436Z,100.00
2022-09-28T01:40:03.929Z,100.00
2022-09-28T01:42:35.674Z,100.00
2022-09-28T01:45:09.534Z,100.00
2022-09-28T01:47:41.220Z,100.00
2022-09-28T01:50:13.194Z,100.00
2022-09-28T01:52:48.378Z,100.00
2022-09-28T01:55:24.637Z,100.00
2022-09-28T01:57:58.503Z,100.00
2022-09-28T02:00:27.856Z,100.00
2022-09-28T02:03:01.868Z,100.00
2022-09-28T02:05:31.606Z,100.00
2022-09-28T02:08:07.916Z,100.00
2022-09-28T02:10:42.494Z,100.00
2022-09-28T02:13:15.764Z,100.00
2022-09-28T02:15:50.530Z,100.00
2022-09-28T02:18:18.649Z,100.00
2022-09-28T02:20:51.502Z,100.00
2022-09-28T02:23:23.697Z,100.00
2022-09-28T02:25:55.022Z,100.00
2022-09-28T02:28:24.344Z,100.00
2022-09-28T02:30:52.264Z,100.00
2022-09-28T02:33:24.657Z,100.00
2022-09-28T02:35:52.742Z,100.00
2022-09-28T02:38:20.671Z,100.00
2022-09-28T02:41:04.702Z,100.00
2022-09-28T02:43:47.053Z,100.00
2022-09-28T02:46:23.997Z,100.00
2022-09-28T02:49:21.510Z,100.00
2022-09-28T02:52:02.378Z,100.00
2022-09-28T02:54:57.629Z,100.00
2022-09-28T02:57:36.205Z,100.00
2022-09-28T03:00:10.627Z,100.00
2022-09-28T03:02:47.571Z,100.00
2022-09-28T03:05:20.682Z,100.00
2022-09-28T03:07:57.065Z,100.00
2022-09-28T03:10:29.526Z,100.00
2022-09-28T03:12:58.209Z,100.00
2022-09-28T03:15:29.972Z,100.00
2022-09-28T03:17:58.546Z,100.00
2022-09-28T03:20:26.897Z,100.00
2022-09-28T03:23:12.757Z,100.00
2022-09-28T03:25:42.804Z,100.00
2022-09-28T03:28:10.731Z,100.00
2022-09-28T03:30:40.163Z,100.00
2022-09-28T03:33:08.079Z,100.00
2022-09-28T03:35:36.146Z,100.00
2022-09-28T03:38:04.077Z,100.00
2022-09-28T03:40:32.076Z,100.00
2022-09-28T03:43:01.464Z,100.00
2022-09-28T03:45:29.381Z,100.00
2022-09-28T03:47:58.681Z,100.00
2022-09-28T03:50:26.922Z,100.00
2022-09-28T03:52:54.834Z,100.00
2022-09-28T03:55:22.777Z,100.00
2022-09-28T03:57:56.045Z,100.00
2022-09-28T04:00:24.237Z,100.00
2022-09-28T04:02:52.176Z,100.00
2022-09-28T04:05:21.453Z,100.00
2022-09-28T04:07:49.373Z,100.00
2022-09-28T04:10:17.528Z,100.00
2022-09-28T04:12:46.044Z,100.00
2022-09-28T04:15:14.080Z,100.00
2022-09-28T04:17:42.063Z,100.00
2022-09-28T04:20:10.584Z,100.00
2022-09-28T04:22:39.938Z,100.00
2022-09-28T04:25:08.209Z,100.00
2022-09-28T04:27:53.857Z,100.00
2022-09-28T04:30:21.994Z,100.00
2022-09-28T04:32:50.269Z,100.00
2022-09-28T04:35:18.330Z,100.00
2022-09-28T04:37:47.621Z,100.00
2022-09-28T04:40:15.808Z,100.00
2022-09-28T04:42:43.769Z,100.00
2022-09-28T04:45:12.221Z,100.00
2022-09-28T04:47:40.120Z,100.00
2022-09-28T04:50:08.935Z,100.00
2022-09-28T04:52:37.606Z,100.00
2022-09-28T04:55:07.895Z,100.00
2022-09-28T04:57:36.004Z,100.00
2022-09-28T05:00:04.852Z,100.00
2022-09-28T05:02:33.236Z,100.00
2022-09-28T05:05:01.342Z,100.00
2022-09-28T05:07:29.233Z,100.00
2022-09-28T05:09:57.150Z,100.00
2022-09-28T05:12:26.549Z,100.00
2022-09-28T05:14:54.452Z,100.00
2022-09-28T05:17:22.353Z,100.00
2022-09-28T05:19:50.256Z,100.00
2022-09-28T05:22:18.168Z,100.00
2022-09-28T05:24:46.548Z,100.00
2022-09-28T05:27:14.473Z,100.00
2022-09-28T05:29:43.846Z,100.00
2022-09-28T05:32:11.863Z,100.00
2022-09-28T05:34:39.910Z,100.00
2022-09-28T05:37:07.859Z,100.00
2022-09-28T05:39:35.873Z,100.00
2022-09-28T05:42:03.783Z,100.00
2022-09-28T05:44:31.701Z,100.00
2022-09-28T05:47:00.969Z,100.00
2022-09-28T05:49:29.278Z,100.00
2022-09-28T05:51:57.196Z,100.00
2022-09-28T05:54:25.121Z,100.00
2022-09-28T05:56:53.030Z,100.00
2022-09-28T05:59:20.959Z,100.00
2022-09-28T06:01:48.919Z,100.00
2022-09-28T06:04:18.385Z,100.00
2022-09-28T06:06:46.458Z,100.00
2022-09-28T06:09:14.422Z,100.00
2022-09-28T06:11:42.330Z,100.00
2022-09-28T06:14:10.572Z,98.94
2022-09-28T06:16:43.616Z,99.13
2022-09-28T06:19:13.228Z,97.73
2022-09-28T06:21:42.514Z,94.92
2022-09-28T06:24:10.566Z,95.91
2022-09-28T06:26:38.727Z,93.40
2022-09-28T06:29:06.643Z,91.12
2022-09-28T06:31:34.550Z,91.84
2022-09-28T06:34:02.580Z,89.89
2022-09-28T06:36:31.321Z,85.01
2022-09-28T06:39:00.629Z,87.27
2022-09-28T06:41:28.525Z,87.34
2022-09-28T06:43:56.496Z,85.93
2022-09-28T06:46:24.497Z,85.21
2022-09-28T06:48:52.621Z,84.54
2022-09-28T06:51:20.553Z,85.17
2022-09-28T06:53:48.526Z,83.09
2022-09-28T06:56:18.142Z,86.05
2022-09-28T06:58:46.100Z,79.37
2022-09-28T07:01:14.088Z,84.19
2022-09-28T07:03:42.070Z,79.30
2022-09-28T07:06:12.780Z,80.65
2022-09-28T07:08:40.826Z,74.04
2022-09-28T07:11:10.070Z,78.34
2022-09-28T07:13:50.267Z,75.85
2022-09-28T07:16:22.710Z,77.75
2022-09-28T07:18:53.770Z,75.20
2022-09-28T07:21:29.318Z,74.16
2022-09-28T07:23:57.958Z,73.52
2022-09-28T07:26:26.816Z,72.29
2022-09-28T07:28:56.386Z,72.26
2022-09-28T07:31:25.585Z,71.62
2022-09-28T07:33:54.014Z,73.82
2022-09-28T07:36:22.847Z,68.83
2022-09-28T07:38:51.111Z,69.32
2022-09-28T07:41:22.571Z,71.25
2022-09-28T07:43:51.005Z,70.20
2022-09-28T07:46:21.398Z,68.05
2022-09-28T07:48:51.799Z,65.15
2022-09-28T07:51:21.344Z,64.88
2022-09-28T07:53:49.315Z,64.53
2022-09-28T07:56:20.481Z,64.26
2022-09-28T07:58:48.954Z,64.21
2022-09-28T08:01:17.767Z,64.50
2022-09-28T08:03:48.056Z,60.65
2022-09-28T08:06:17.895Z,60.75
2022-09-28T08:08:46.173Z,59.51
2022-09-28T08:11:15.610Z,58.66
2022-09-28T08:13:44.102Z,58.17
2022-09-28T08:16:13.391Z,58.01
2022-09-28T08:18:41.417Z,60.72
2022-09-28T08:21:34.426Z,59.21
2022-09-28T08:24:02.736Z,59.35
2022-09-28T08:26:30.657Z,58.38
2022-09-28T08:28:58.643Z,58.17
2022-09-28T08:31:26.582Z,55.33
2022-09-28T08:33:54.551Z,55.82
2022-09-28T08:36:24.129Z,56.59
2022-09-28T08:38:52.262Z,58.08
2022-09-28T08:41:29.404Z,56.50
2022-09-28T08:44:13.848Z,55.30
2022-09-28T08:46:45.099Z,55.59
2022-09-28T08:49:25.500Z,55.40
2022-09-28T08:52:01.905Z,56.98
2022-09-28T08:54:40.651Z,55.21
2022-09-28T08:57:15.118Z,53.11
2022-09-28T08:59:51.394Z,54.38
2022-09-28T09:02:25.483Z,54.30
2022-09-28T09:04:53.942Z,53.56
2022-09-28T09:07:51.981Z,51.81
2022-09-28T09:10:50.694Z,49.53
2022-09-28T09:13:45.867Z,50.00
2022-09-28T09:16:25.187Z,48.32
2022-09-28T09:19:00.395Z,52.05
2022-09-28T09:21:41.137Z,47.80
2022-09-28T09:24:21.588Z,50.53
2022-09-28T09:26:57.138Z,51.33
2022-09-28T09:29:34.556Z,49.71
2022-09-28T09:32:17.878Z,45.71
2022-09-28T09:35:07.358Z,47.99
2022-09-28T09:38:03.094Z,46.91
2022-09-28T09:40:48.914Z,48.15
2022-09-28T09:43:42.140Z,44.72
2022-09-28T09:46:17.865Z,45.99
2022-09-28T09:48:54.188Z,46.04
2022-09-28T09:51:30.045Z,44.87
2022-09-28T09:54:03.517Z,43.45
2022-09-28T09:56:39.103Z,46.13
2022-09-28T09:59:12.558Z,44.19
2022-09-28T10:01:42.710Z,44.75
2022-09-28T10:04:19.154Z,44.57
2022-09-28T10:06:50.829Z,42.86
2022-09-28T10:09:25.053Z,42.22
2022-09-28T10:11:54.901Z,43.35
2022-09-28T10:14:24.442Z,42.46
2022-09-28T10:16:54.297Z,42.18
2022-09-28T10:19:30.118Z,44.36
2022-09-28T10:21:58.612Z,43.95
2022-09-28T10:24:31.457Z,44.84
2022-09-28T10:27:06.819Z,43.58
2022-09-28T10:29:44.570Z,44.09
2022-09-28T10:32:24.214Z,46.01
2022-09-28T10:34:53.565Z,43.15
2022-09-28T10:37:21.777Z,44.13
2022-09-28T10:39:53.340Z,43.16
2022-09-28T10:42:27.216Z,42.54
2022-09-28T10:44:59.641Z,43.08
2022-09-28T10:47:32.708Z,44.10
2022-09-28T10:50:01.717Z,46.38
2022-09-28T10:52:33.566Z,45.78
2022-09-28T10:55:01.898Z,44.57
2022-09-28T10:57:36.705Z,40.56
2022-09-28T11:00:08.415Z,44.20
2022-09-28T11:02:39.268Z,44.25
2022-09-28T11:05:08.982Z,43.14
2022-09-28T11:07:47.424Z,44.94
2022-09-28T11:10:23.282Z,42.35
2022-09-28T11:12:53.642Z,42.59
2022-09-28T11:15:23.803Z,42.09
2022-09-28T11:17:52.037Z,43.64
2022-09-28T11:20:35.870Z,40.39
2022-09-28T11:23:20.546Z,42.51
2022-09-28T11:26:00.109Z,41.75
2022-09-28T11:28:33.684Z,41.77
2022-09-28T11:31:03.458Z,42.51
2022-09-28T11:33:34.159Z,40.42
2022-09-28T11:36:17.174Z,41.53
2022-09-28T11:38:53.982Z,42.06
2022-09-28T11:41:34.347Z,41.52
2022-09-28T11:44:37.678Z,41.37
2022-09-28T11:47:21.729Z,42.91
2022-09-28T11:49:56.215Z,42.13
2022-09-28T11:52:29.388Z,43.93
2022-09-28T11:55:00.718Z,44.33
2022-09-28T11:57:36.458Z,43.76
2022-09-28T12:00:09.574Z,43.34
2022-09-28T12:02:42.963Z,44.53
2022-09-28T12:05:19.889Z,44.73
2022-09-28T12:07:52.574Z,44.79
2022-09-28T12:10:26.865Z,43.83
2022-09-28T12:13:01.602Z,43.87
2022-09-28T12:16:11.573Z,41.15
2022-09-28T12:18:38.896Z,40.49
2022-09-28T12:21:23.556Z,41.08
2022-09-28T12:23:54.786Z,39.73
2022-09-28T12:26:37.263Z,44.91
2022-09-28T12:29:12.142Z,40.25
2022-09-28T12:31:53.524Z,44.05
2022-09-28T12:34:22.471Z,39.90
2022-09-28T12:37:05.822Z,43.97
2022-09-28T12:39:57.725Z,46.16
2022-09-28T12:42:54.697Z,44.34
2022-09-28T12:46:06.640Z,43.12
2022-09-28T12:48:44.006Z,45.93
2022-09-28T12:51:25.162Z,43.16
2022-09-28T12:54:07.810Z,44.09
2022-09-28T12:56:42.833Z,46.60
2022-09-28T12:59:20.307Z,47.32
2022-09-28T13:02:02.404Z,47.53
2022-09-28T13:04:51.810Z,43.45
2022-09-28T13:07:29.307Z,47.20
2022-09-28T13:10:07.549Z,46.99
2022-09-28T13:12:47.455Z,47.89
2022-09-28T13:15:42.040Z,47.87
2022-09-28T13:18:19.299Z,50.09
2022-09-28T13:21:05.390Z,49.80
2022-09-28T13:23:38.933Z,51.80
2022-09-28T13:26:11.053Z,52.21
2022-09-28T13:28:40.321Z,50.33
2022-09-28T13:31:10.009Z,49.43
2022-09-28T13:33:41.057Z,53.15
2022-09-28T13:36:47.189Z,52.54
2022-09-28T13:39:39.112Z,52.04
2022-09-28T13:42:10.002Z,53.47
2022-09-28T13:45:00.323Z,53.92
2022-09-28T13:48:00.903Z,53.70
2022-09-28T13:50:39.135Z,54.13
2022-09-28T13:53:20.442Z,54.17
2022-09-28T13:55:57.380Z,52.71
2022-09-28T13:58:29.240Z,52.24
2022-09-28T14:01:03.535Z,53.94
2022-09-28T14:03:53.803Z,52.56
2022-09-28T14:06:27.952Z,52.97
2022-09-28T14:09:24.927Z,53.06
2022-09-28T14:11:58.954Z,53.90
2022-09-28T14:14:32.837Z,52.23
2022-09-28T14:17:52.234Z,55.17
2022-09-28T14:20:26.098Z,56.75
2022-09-28T14:23:43.337Z,56.00
2022-09-28T14:26:54.591Z,57.95
2022-09-28T14:29:28.872Z,56.66
2022-09-28T14:31:58.886Z,57.53
2022-09-28T14:34:34.384Z,58.01
2022-09-28T14:37:21.963Z,57.34
2022-09-28T14:40:08.012Z,58.12
2022-09-28T14:42:37.357Z,57.57
2022-09-28T14:45:34.885Z,57.43
2022-09-28T14:48:21.972Z,56.51
2022-09-28T14:50:50.491Z,57.92
2022-09-28T14:53:24.942Z,58.69
2022-09-28T14:55:58.020Z,58.62
2022-09-28T14:58:30.184Z,58.80
2022-09-28T15:01:05.693Z,59.43
2022-09-28T15:03:37.062Z,59.77
2022-09-28T15:06:05.129Z,59.49
2022-09-28T15:08:40.298Z,59.37
2022-09-28T15:11:14.896Z,58.14
2022-09-28T15:13:44.995Z,59.42
2022-09-28T15:16:15.098Z,59.50
2022-09-28T15:19:11.250Z,59.50
2022-09-28T15:21:41.313Z,59.67
2022-09-28T15:24:29.046Z,59.96
2022-09-28T15:26:57.274Z,60.34
2022-09-28T15:29:31.128Z,60.33
2022-09-28T15:31:59.428Z,60.88
2022-09-28T15:34:46.528Z,61.94
2022-09-28T15:37:17.747Z,61.72
2022-09-28T15:39:46.287Z,62.19
2022-09-28T15:42:14.422Z,62.71
2022-09-28T15:44:47.736Z,62.72
2022-09-28T15:47:25.323Z,62.73
2022-09-28T15:49:59.158Z,64.24
2022-09-28T15:52:34.013Z,64.29
2022-09-28T15:55:05.278Z,65.00
2022-09-28T15:57:38.985Z,66.53
2022-09-28T16:00:24.090Z,65.88
2022-09-28T16:03:01.789Z,66.45
2022-09-28T16:05:36.506Z,66.90
2022-09-28T16:08:05.746Z,66.86
2022-09-28T16:10:35.219Z,66.27
2022-09-28T16:13:15.631Z,66.76
2022-09-28T16:15:45.468Z,67.84
2022-09-28T16:18:20.721Z,68.96
2022-09-28T16:20:51.346Z,69.22
2022-09-28T16:23:26.394Z,68.49
2022-09-28T16:25:58.828Z,68.67
2022-09-28T16:28:46.086Z,69.16
2022-09-28T16:31:28.387Z,68.77
2022-09-28T16:33:58.987Z,68.12
2022-09-28T16:36:29.928Z,67.13
2022-09-28T16:38:57.961Z,66.14
2022-09-28T16:41:29.022Z,66.26
2022-09-28T16:44:00.976Z,66.73
2022-09-28T16:46:33.855Z,67.85
2022-09-28T16:49:03.182Z,69.46
2022-09-28T16:51:31.105Z,70.76
2022-09-28T16:54:19.002Z,71.67
2022-09-28T16:56:46.960Z,72.93
2022-09-28T16:59:14.945Z,72.95
2022-09-28T17:01:44.347Z,72.51
2022-09-28T17:04:12.798Z,73.18
2022-09-28T17:06:40.741Z,73.60
2022-09-28T17:09:13.155Z,73.40
2022-09-28T17:11:41.079Z,73.32
2022-09-28T17:14:09.490Z,74.35
2022-09-28T17:19:30.958Z,74.52
2022-09-28T17:21:59.117Z,74.37
2022-09-28T17:24:27.017Z,74.82
2022-09-28T17:26:55.038Z,75.03
2022-09-28T17:29:23.751Z,76.68
2022-09-28T17:31:52.176Z,77.47
2022-09-28T17:34:20.852Z,78.06
2022-09-28T17:36:50.433Z,77.74
2022-09-28T17:39:20.033Z,77.82
2022-09-28T17:41:48.076Z,79.01
2022-09-28T17:44:16.506Z,77.22
2022-09-28T17:46:48.726Z,77.97
2022-09-28T17:49:17.428Z,76.18
2022-09-28T17:51:45.540Z,75.18
2022-09-28T17:54:16.919Z,74.90
2022-09-28T17:56:44.906Z,77.60
2022-09-28T17:59:15.231Z,77.49
2022-09-28T18:01:43.255Z,77.42
2022-09-28T18:04:27.912Z,77.48
2022-09-28T18:07:01.559Z,78.01
2022-09-28T18:09:30.881Z,76.95
2022-09-28T18:12:01.429Z,78.00
2022-09-28T18:14:30.201Z,78.23
2022-09-28T18:16:58.143Z,78.20
2022-09-28T18:19:31.697Z,76.89
2022-09-28T18:22:01.523Z,76.28
2022-09-28T18:24:32.581Z,76.27
2022-09-28T18:27:00.675Z,75.30
2022-09-28T18:29:32.908Z,75.44
2022-09-28T18:32:01.520Z,74.68
2022-09-28T18:34:29.450Z,74.78
2022-09-28T18:36:57.349Z,75.58
2022-09-28T18:39:26.597Z,76.73
2022-09-28T18:41:56.037Z,77.12
2022-09-28T18:44:24.032Z,77.18
2022-09-28T18:46:51.972Z,77.75
2022-09-28T18:49:20.061Z,77.40
2022-09-28T18:51:48.314Z,78.29
2022-09-28T18:54:17.129Z,79.25
2022-09-28T18:56:45.021Z,80.39
2022-09-28T18:59:14.925Z,80.28
2022-09-28T19:01:43.426Z,81.36
2022-09-28T19:04:13.665Z,79.37
2022-09-28T19:06:44.617Z,77.12
2022-09-28T19:09:13.326Z,78.09
2022-09-28T19:11:41.352Z,74.49
2022-09-28T19:14:11.166Z,74.64
2022-09-28T19:16:40.534Z,75.21
2022-09-28T19:19:08.952Z,74.75
2022-09-28T19:21:36.959Z,75.44
2022-09-28T19:24:05.377Z,76.73
2022-09-28T19:26:33.964Z,77.97
2022-09-28T19:29:02.919Z,78.04
2022-09-28T19:31:31.830Z,78.17
2022-09-28T19:34:01.244Z,77.03
2022-09-28T19:36:29.902Z,77.88
2022-09-28T19:39:00.021Z,78.05
2022-09-28T19:41:51.259Z,76.07
2022-09-28T19:44:25.712Z,74.56
2022-09-28T19:46:55.415Z,73.93
2022-09-28T19:49:26.810Z,75.03
2022-09-28T19:54:46.151Z,73.91
2022-09-28T19:57:16.055Z,73.30
2022-09-28T19:59:45.384Z,72.99
2022-09-28T20:02:14.562Z,72.68
2022-09-28T20:04:43.885Z,74.41
2022-09-28T20:07:11.834Z,74.36
2022-09-28T20:09:39.811Z,74.24
2022-09-28T20:12:07.773Z,73.60
2022-09-28T20:14:38.311Z,74.60
2022-09-28T20:17:08.746Z,75.23
2022-09-28T20:19:36.653Z,76.29
2022-09-28T20:22:06.016Z,76.52
2022-09-28T20:24:34.094Z,77.18
2022-09-28T20:27:02.935Z,75.80
2022-09-28T20:29:35.072Z,73.97
2022-09-28T20:32:04.106Z,72.93
2022-09-28T20:34:33.622Z,72.81
2022-09-28T20:37:01.625Z,72.02
2022-09-28T20:39:30.949Z,72.15
2022-09-28T20:41:58.860Z,72.12
2022-09-28T20:44:26.779Z,74.03
2022-09-28T20:46:54.711Z,73.57
2022-09-28T20:49:22.727Z,75.67
2022-09-28T20:51:50.627Z,75.17
2022-09-28T20:54:18.692Z,74.17
2022-09-28T20:56:48.338Z,74.10
2022-09-28T20:59:16.563Z,75.62
2022-09-28T21:01:44.937Z,75.19
2022-09-28T21:04:13.218Z,75.02
2022-09-28T21:06:42.860Z,73.94
2022-09-28T21:09:12.429Z,73.24
2022-09-28T21:11:41.729Z,72.30
2022-09-28T21:14:11.305Z,73.02
2022-09-28T21:16:39.481Z,71.77
2022-09-28T21:19:07.423Z,73.60
2022-09-28T21:21:35.434Z,73.51
2022-09-28T21:24:03.673Z,72.15
2022-09-28T21:26:32.904Z,72.13
2022-09-28T21:29:02.249Z,71.70
2022-09-28T21:31:33.747Z,72.72
2022-09-28T21:34:01.900Z,75.07
2022-09-28T21:36:30.209Z,74.44
2022-09-28T21:38:58.537Z,74.08
2022-09-28T21:41:26.892Z,74.98
2022-09-28T21:43:55.052Z,75.80
2022-09-28T21:46:23.204Z,76.04
2022-09-28T21:48:54.498Z,75.24
2022-09-28T21:51:22.744Z,75.71
2022-09-28T21:53:50.843Z,76.07
2022-09-28T21:56:18.786Z,75.66
2022-09-28T21:58:47.443Z,75.91
2022-09-28T22:01:16.923Z,76.00
2022-09-28T22:03:46.731Z,76.34
2022-09-28T22:06:18.471Z,75.72
2022-09-28T22:08:47.020Z,76.24
2022-09-28T22:11:16.746Z,76.84
2022-09-28T22:13:46.370Z,76.69
2022-09-28T22:16:16.050Z,76.82
2022-09-28T22:18:44.825Z,78.00
2022-09-28T22:21:17.796Z,78.13
2022-09-28T22:23:46.049Z,78.85
2022-09-28T22:26:18.036Z,78.08
2022-09-28T22:28:48.128Z,76.86
2022-09-28T22:31:16.758Z,76.86
2022-09-28T22:33:44.854Z,77.74
2022-09-28T22:36:15.202Z,77.81
2022-09-28T22:38:45.480Z,78.67
2022-09-28T22:41:15.863Z,79.00
2022-09-28T22:43:44.233Z,78.67
2022-09-28T22:46:13.702Z,79.13
2022-09-28T22:48:42.372Z,79.86
2022-09-28T22:51:10.384Z,79.89
2022-09-28T22:53:38.412Z,80.65
2022-09-28T22:56:08.971Z,80.91
2022-09-28T22:58:38.883Z,81.41
2022-09-28T23:01:08.218Z,81.34
2022-09-28T23:03:36.385Z,82.02
2022-09-28T23:06:04.618Z,82.74
2022-09-28T23:08:33.066Z,82.35
2022-09-28T23:11:01.025Z,82.30
2022-09-28T23:13:31.163Z,83.01
2022-09-28T23:16:00.360Z,83.24
2022-09-28T23:18:30.220Z,84.51
2022-09-28T23:20:59.824Z,84.04
2022-09-28T23:23:28.257Z,83.76
2022-09-28T23:25:57.209Z,83.55
2022-09-28T23:28:27.570Z,83.79
2022-09-28T23:30:56.905Z,83.28
2022-09-28T23:33:24.843Z,83.16
2022-09-28T23:35:52.770Z,83.11
2022-09-28T23:38:20.678Z,82.88
2022-09-28T23:40:49.021Z,83.09
2022-09-28T23:43:16.949Z,82.83
2022-09-28T23:45:45.599Z,82.63
2022-09-28T23:48:15.261Z,82.29
2022-09-28T23:50:44.053Z,82.83
2022-09-28T23:53:13.758Z,83.07
2022-09-28T23:55:42.705Z,82.49
2022-09-28T23:58:10.698Z,83.25
